Time;durP1;ratioP1;P1;durP2;ratioP2;P2;SDS_P1;SDS_P2;PMS_P1;PMS_P2;Temp;Humidity;BMP_temperature;BMP_pressure;BME280_temperature;BME280_humidity;BME280_pressure;Samples;Min_cycle;Max_cycle;Signal;HPM_P1;HPM_P2
2023/05/14 00:01:03;;;;;;;3.63;2.40;;;;;;;15.00;61.74;95256.72;5020501;28;20432;-80
2023/05/14 00:03:29;;;;;;;4.00;2.53;;;;;;;15.06;61.41;95263.75;5019819;28;20557;-80
2023/05/14 00:05:55;;;;;;;4.90;2.55;;;;;;;15.05;61.41;95262.13;5020388;28;20433;-80
2023/05/14 00:08:20;;;;;;;3.15;2.50;;;;;;;15.04;61.27;95261.34;5019928;28;20414;-80
2023/05/14 00:10:46;;;;;;;4.22;2.50;;;;;;;14.92;61.41;95251.75;5002309;28;20438;-80
2023/05/14 00:13:11;;;;;;;3.63;2.43;;;;;;;14.95;61.38;95249.47;5021557;28;20490;-80
2023/05/14 00:15:37;;;;;;;3.77;2.27;;;;;;;15.07;61.20;95246.81;5022154;28;20429;-80
2023/05/14 00:18:02;;;;;;;3.67;2.50;;;;;;;15.01;61.37;95237.94;5022265;28;20405;-80
2023/05/14 00:20:28;;;;;;;3.67;2.17;;;;;;;14.98;61.51;95233.09;5020491;28;20409;-80
2023/05/14 00:22:53;;;;;;;5.87;2.70;;;;;;;14.99;61.55;95237.34;4998048;28;20818;-80
2023/05/14 00:25:18;;;;;;;3.50;2.20;;;;;;;14.90;61.60;95211.41;5022564;28;20906;-80
2023/05/14 00:27:44;;;;;;;2.70;2.27;;;;;;;14.86;61.64;95212.91;5022210;28;20421;-80
2023/05/14 00:30:10;;;;;;;4.90;2.60;;;;;;;14.75;62.01;95211.03;5020874;28;20609;-80
2023/05/14 00:32:35;;;;;;;3.90;2.35;;;;;;;14.77;61.92;95208.97;5019656;28;20804;-80
2023/05/14 00:35:03;;;;;;;3.63;2.30;;;;;;;14.85;61.66;95203.34;5018054;28;20471;-80
2023/05/14 00:37:28;;;;;;;3.95;2.47;;;;;;;14.90;62.05;95235.25;5022162;28;21227;-80
2023/05/14 00:39:53;;;;;;;5.40;2.60;;;;;;;14.78;62.74;95223.84;5019690;28;20453;-80
2023/05/14 00:42:19;;;;;;;6.13;2.70;;;;;;;14.89;61.96;95225.69;5019858;28;20526;-80
2023/05/14 00:44:44;;;;;;;4.85;2.22;;;;;;;14.84;62.31;95221.09;5011012;28;20789;-80
2023/05/14 00:47:10;;;;;;;4.17;2.73;;;;;;;14.97;61.66;95231.47;5020319;28;20477;-80
2023/05/14 00:49:35;;;;;;;5.07;2.08;;;;;;;14.91;61.75;95226.28;5022894;28;20187;-80
2023/05/14 00:52:01;;;;;;;5.22;2.38;;;;;;;14.81;61.74;95210.94;5021762;28;20432;-80
2023/05/14 00:54:27;;;;;;;5.60;2.63;;;;;;;14.78;62.14;95223.84;5021924;28;20847;-80
2023/05/14 00:56:53;;;;;;;3.77;2.43;;;;;;;14.67;62.05;95207.69;5019592;28;20960;-80
2023/05/14 00:59:19;;;;;;;4.97;2.50;;;;;;;14.75;61.78;95213.69;5011296;28;20457;-80
2023/05/14 01:01:44;;;;;;;6.07;2.60;;;;;;;14.66;62.07;95208.72;5016848;28;20456;-80
2023/05/14 01:04:10;;;;;;;3.50;2.47;;;;;;;14.58;61.79;95195.81;5021741;28;20924;-80
2023/05/14 01:06:54;;;;;;;4.43;2.40;;;;;;;14.67;61.60;95230.72;5020915;28;20421;-80
2023/05/14 01:09:41;;;;;;;4.60;2.42;;;;;;;14.42;62.11;95203.59;5019446;28;20469;-80
2023/05/14 01:12:26;;;;;;;4.03;2.30;;;;;;;14.53;61.99;95216.84;5012849;28;20425;-80
2023/05/14 01:14:55;;;;;;;3.20;2.47;;;;;;;14.51;61.68;95205.69;5021763;28;20420;-80
2023/05/14 01:17:23;;;;;;;3.10;2.28;;;;;;;14.33;61.81;95182.69;5021228;28;20444;-80
2023/05/14 01:19:50;;;;;;;4.00;2.40;;;;;;;14.19;62.78;95191.03;5021359;28;20421;-80
2023/05/14 01:22:16;;;;;;;3.38;2.13;;;;;;;14.53;62.01;95227.44;5003830;28;20440;-80
2023/05/14 01:24:41;;;;;;;3.57;2.30;;;;;;;14.56;61.75;95220.91;5023054;28;20173;-80
2023/05/14 01:27:15;;;;;;;3.37;2.00;;;;;;;14.56;61.89;95229.66;5024074;28;20168;-80
2023/05/14 01:29:48;;;;;;;3.20;2.50;;;;;;;14.50;62.12;95241.16;4994447;28;20501;-80
2023/05/14 01:32:16;;;;;;;6.85;2.60;;;;;;;14.46;62.17;95239.16;5017843;28;20415;-80
2023/05/14 01:34:45;;;;;;;3.70;2.20;;;;;;;14.51;62.07;95242.78;5018523;28;20419;-80
2023/05/14 01:37:12;;;;;;;4.43;2.00;;;;;;;14.45;61.76;95234.91;5030690;28;20922;-80
2023/05/14 01:39:39;;;;;;;3.00;2.03;;;;;;;14.49;61.93;95234.25;5029398;28;20444;-81
2023/05/14 01:42:06;;;;;;;3.10;2.50;;;;;;;14.30;62.02;95222.03;5028771;28;20523;-81
2023/05/14 01:44:32;;;;;;;3.00;2.30;;;;;;;14.42;61.85;95230.88;5022853;28;20446;-80
2023/05/14 01:46:57;;;;;;;4.60;2.38;;;;;;;14.47;61.62;95227.53;5019275;28;20910;-81
2023/05/14 01:49:23;;;;;;;3.70;2.20;;;;;;;14.42;61.75;95232.72;5025053;28;20413;-81
2023/05/14 01:51:48;;;;;;;2.90;2.30;;;;;;;14.43;61.47;95229.03;5015037;28;20446;-81
2023/05/14 01:54:14;;;;;;;5.00;2.40;;;;;;;14.35;62.10;95216.91;5023130;28;20426;-81
2023/05/14 01:56:39;;;;;;;2.70;1.90;;;;;;;14.35;62.52;95243.38;5030896;28;20413;-81
2023/05/14 01:59:05;;;;;;;2.70;1.93;;;;;;;14.31;62.50;95247.50;5023501;28;20446;-81
2023/05/14 02:01:30;;;;;;;3.65;2.20;;;;;;;14.23;63.03;95234.56;5022514;28;20959;-81
2023/05/14 02:03:56;;;;;;;3.33;2.37;;;;;;;14.24;62.59;95233.53;5022405;28;20427;-81
2023/05/14 02:06:21;;;;;;;4.53;2.03;;;;;;;14.14;63.11;95234.06;5022545;28;21167;-81
2023/05/14 02:08:46;;;;;;;2.90;2.00;;;;;;;14.07;63.12;95220.13;5023701;28;20445;-81
2023/05/14 02:11:12;;;;;;;3.97;2.50;;;;;;;14.14;63.10;95226.13;5024190;28;20416;-81
2023/05/14 02:13:37;;;;;;;2.70;2.30;;;;;;;14.16;63.04;95237.31;5024742;28;20789;-81
2023/05/14 02:16:03;;;;;;;3.92;2.20;;;;;;;14.16;63.02;95229.38;5032904;28;20408;-81
2023/05/14 02:18:28;;;;;;;3.47;2.08;;;;;;;14.11;63.66;95241.63;5033036;28;20416;-80
2023/05/14 02:20:53;;;;;;;2.00;1.80;;;;;;;14.09;63.67;95244.53;5034272;28;20164;-81
2023/05/14 02:23:19;;;;;;;3.83;2.10;;;;;;;14.09;63.74;95255.13;5033114;28;20964;-80
2023/05/14 02:25:44;;;;;;;2.73;1.93;;;;;;;13.95;64.57;95251.81;5024111;28;20413;-81
2023/05/14 02:28:10;;;;;;;3.90;2.20;;;;;;;13.69;65.53;95207.13;5015401;28;20418;-81
2023/05/14 02:30:35;;;;;;;3.33;2.00;;;;;;;13.89;65.92;95255.34;5024157;28;20409;-81
2023/05/14 02:33:00;;;;;;;3.03;2.40;;;;;;;13.88;65.11;95219.31;5000008;28;20795;-80
2023/05/14 02:35:26;;;;;;;3.33;2.23;;;;;;;13.81;65.55;95229.19;5004017;28;20484;-81
2023/05/14 02:37:51;;;;;;;2.70;2.27;;;;;;;13.87;65.68;95232.78;5023471;28;20426;-80
2023/05/14 02:40:17;;;;;;;2.67;2.20;;;;;;;13.89;65.97;95255.34;5023448;28;20542;-80
2023/05/14 02:42:42;;;;;;;2.50;2.00;;;;;;;13.99;65.89;95260.13;5023878;28;20432;-80
2023/05/14 02:45:08;;;;;;;3.10;2.20;;;;;;;13.71;66.38;95217.50;5023569;28;20786;-80
2023/05/14 02:47:33;;;;;;;3.22;2.25;;;;;;;13.73;66.56;95239.25;5015491;28;20402;-80
2023/05/14 02:49:58;;;;;;;3.20;2.13;;;;;;;13.67;65.86;95259.44;5024545;28;20428;-80
2023/05/14 02:52:24;;;;;;;3.57;2.20;;;;;;;13.59;66.13;95259.75;4999137;28;21007;-80
2023/05/14 02:54:49;;;;;;;2.97;2.10;;;;;;;13.73;66.03;95271.81;5021051;28;20535;-80
2023/05/14 02:57:14;;;;;;;5.60;1.97;;;;;;;13.69;65.09;95275.91;5023517;28;20970;-80
2023/05/14 02:59:40;;;;;;;3.83;2.47;;;;;;;13.69;64.73;95264.53;5023607;28;20413;-80
2023/05/14 03:02:05;;;;;;;4.75;2.20;;;;;;;13.67;64.76;95272.69;5023453;28;20460;-80
2023/05/14 03:04:31;;;;;;;4.30;2.10;;;;;;;13.63;64.94;95266.22;5014909;28;20445;-80
2023/05/14 03:06:56;;;;;;;2.50;1.90;;;;;;;13.69;64.36;95273.28;5014907;28;20419;-80
2023/05/14 03:09:21;;;;;;;4.40;2.15;;;;;;;13.64;64.69;95267.03;5023719;28;21207;-80
2023/05/14 03:11:47;;;;;;;2.27;1.83;;;;;;;13.45;64.83;95224.69;5025091;28;20824;-80
2023/05/14 03:14:12;;;;;;;4.20;2.00;;;;;;;13.65;64.48;95250.13;5021051;28;20564;-80
2023/05/14 03:16:40;;;;;;;7.00;2.30;;;;;;;13.59;64.74;95228.81;5005960;28;20521;-80
2023/05/14 03:19:06;;;;;;;3.20;2.00;;;;;;;13.54;64.80;95251.66;5018165;28;20517;-80
2023/05/14 03:21:32;;;;;;;3.77;2.37;;;;;;;13.46;65.05;95244.81;5019218;28;20538;-80
2023/05/14 03:23:57;;;;;;;2.93;2.20;;;;;;;13.29;64.84;95232.38;5013660;28;20498;-80
2023/05/14 03:26:22;;;;;;;3.30;2.20;;;;;;;13.43;65.61;95247.09;5020742;28;20495;-80
2023/05/14 03:28:50;;;;;;;2.53;1.90;;;;;;;13.39;66.17;95249.38;5020087;28;20945;-80
2023/05/14 03:31:15;;;;;;;6.53;2.13;;;;;;;13.22;67.64;95235.09;5020684;28;20414;-80
2023/05/14 03:33:41;;;;;;;2.53;1.90;;;;;;;13.40;68.92;95271.34;5022300;28;20172;-80
2023/05/14 03:36:06;;;;;;;3.03;2.10;;;;;;;13.24;69.34;95262.09;5022797;28;20419;-80
2023/05/14 03:38:31;;;;;;;2.75;1.98;;;;;;;13.08;69.47;95255.50;5022920;28;20443;-80
2023/05/14 03:40:57;;;;;;;3.63;1.90;;;;;;;13.08;70.33;95268.72;5015267;28;20526;-80
2023/05/14 03:43:22;;;;;;;2.87;2.30;;;;;;;13.05;71.47;95261.25;5020043;28;20445;-79
2023/05/14 03:45:51;;;;;;;2.90;2.30;;;;;;;12.92;71.04;95237.53;5020100;28;20871;-80
2023/05/14 03:48:19;;;;;;;2.63;2.03;;;;;;;13.06;70.53;95260.19;5008132;28;20428;-79
2023/05/14 03:50:45;;;;;;;3.70;2.60;;;;;;;12.80;71.27;95232.13;5030893;28;20474;-79
2023/05/14 03:53:10;;;;;;;3.17;2.07;;;;;;;12.91;70.79;95262.34;5011015;28;20446;-79
2023/05/14 03:55:36;;;;;;;3.10;2.40;;;;;;;12.68;71.12;95222.50;5010797;28;20423;-79
2023/05/14 03:58:01;;;;;;;3.07;2.03;;;;;;;12.93;70.78;95262.13;5026562;28;20526;-79
2023/05/14 04:00:27;;;;;;;3.88;2.38;;;;;;;12.80;70.33;95249.81;5022344;28;20421;-79
2023/05/14 04:02:53;;;;;;;3.83;1.95;;;;;;;12.91;69.70;95264.19;5011324;28;20442;-78
2023/05/14 04:05:19;;;;;;;3.20;2.00;;;;;;;12.92;69.06;95266.59;5020411;28;20425;-79
2023/05/14 04:07:45;;;;;;;3.87;2.20;;;;;;;12.93;69.33;95278.00;5019719;28;20426;-79
2023/05/14 04:10:11;;;;;;;4.78;1.98;;;;;;;12.85;68.80;95252.66;5019699;28;20428;-79
2023/05/14 04:12:36;;;;;;;3.70;2.00;;;;;;;12.93;68.33;95256.84;5021625;28;20434;-79
2023/05/14 04:15:02;;;;;;;3.80;2.00;;;;;;;13.05;67.82;95269.16;5022812;28;20420;-79
2023/05/14 04:17:27;;;;;;;4.07;2.17;;;;;;;13.10;67.69;95287.81;5030482;28;20840;-79
2023/05/14 04:19:53;;;;;;;3.27;1.83;;;;;;;13.06;67.90;95280.56;5008266;28;20506;-79
2023/05/14 04:22:18;;;;;;;3.20;2.00;;;;;;;13.01;67.51;95273.25;5019515;28;20432;-78
2023/05/14 04:24:43;;;;;;;4.18;2.10;;;;;;;13.20;67.51;95290.00;5024429;28;20433;-79
2023/05/14 04:27:09;;;;;;;4.10;2.10;;;;;;;13.36;67.00;95286.00;5023302;28;20430;-79
2023/05/14 04:29:35;;;;;;;4.97;2.22;;;;;;;13.25;66.87;95287.53;5028186;28;20478;-79
2023/05/14 04:32:00;;;;;;;4.13;1.90;;;;;;;13.13;66.30;95290.06;5022270;28;20443;-79
2023/05/14 04:34:25;;;;;;;2.47;2.10;;;;;;;13.20;67.43;95297.94;5025564;28;20411;-79
2023/05/14 04:36:51;;;;;;;3.77;2.17;;;;;;;13.39;66.15;95301.47;5002195;28;20414;-79
2023/05/14 04:39:17;;;;;;;3.67;2.10;;;;;;;13.40;65.98;95309.19;5019499;28;20543;-79
2023/05/14 04:41:43;;;;;;;4.35;1.83;;;;;;;13.30;65.99;95292.19;5013151;28;20433;-79
2023/05/14 04:44:08;;;;;;;3.90;1.90;;;;;;;13.37;66.56;95308.78;5016781;28;20773;-79
2023/05/14 04:46:33;;;;;;;3.63;2.03;;;;;;;13.26;66.88;95315.59;5010606;28;20414;-79
2023/05/14 04:48:59;;;;;;;3.25;2.10;;;;;;;13.12;68.13;95319.34;5020154;28;20409;-79
2023/05/14 04:51:25;;;;;;;3.90;2.07;;;;;;;13.15;68.10;95330.28;5010384;28;20406;-79
2023/05/14 04:53:50;;;;;;;4.43;2.07;;;;;;;12.66;69.99;95270.25;5020092;28;20422;-79
2023/05/14 04:56:16;;;;;;;3.05;2.35;;;;;;;13.05;70.87;95343.19;5012826;28;20441;-78
2023/05/14 04:58:41;;;;;;;3.90;2.67;;;;;;;12.94;71.98;95335.09;5028966;28;20466;-79
2023/05/14 05:01:07;;;;;;;3.77;2.30;;;;;;;12.87;72.15;95332.50;5025064;28;20508;-79
2023/05/14 05:03:32;;;;;;;3.47;2.33;;;;;;;12.60;74.11;95320.47;5028566;28;20475;-81
2023/05/14 05:05:57;;;;;;;3.88;2.28;;;;;;;12.84;73.99;95352.25;5023226;28;20422;-79
2023/05/14 05:08:23;;;;;;;3.77;2.53;;;;;;;12.53;75.22;95325.00;5023138;28;20501;-79
2023/05/14 05:10:48;;;;;;;4.47;2.30;;;;;;;12.56;75.82;95335.13;5023846;28;20426;-80
2023/05/14 05:13:15;;;;;;;4.30;3.10;;;;;;;12.64;76.39;95362.09;5022890;28;20423;-80
2023/05/14 05:15:41;;;;;;;6.88;3.20;;;;;;;12.63;77.53;95365.75;5023316;28;20418;-81
2023/05/14 05:18:06;;;;;;;15.73;7.70;;;;;;;12.50;78.99;95370.28;5033136;28;20778;-80
2023/05/14 05:20:32;;;;;;;3.40;2.33;;;;;;;12.48;79.94;95373.13;5022911;28;20219;-80
2023/05/14 05:22:58;;;;;;;6.70;2.80;;;;;;;12.48;80.21;95366.03;5023861;28;20685;-81
2023/05/14 05:25:23;;;;;;;3.60;2.73;;;;;;;12.36;81.11;95357.16;5024194;28;20188;-81
2023/05/14 05:27:49;;;;;;;5.23;3.13;;;;;;;12.45;81.83;95379.63;5023524;28;20876;-81
2023/05/14 05:30:14;;;;;;;6.67;4.23;;;;;;;12.45;82.80;95371.72;5022884;28;20455;-81
2023/05/14 05:32:39;;;;;;;3.88;2.80;;;;;;;12.35;82.82;95347.63;5028849;28;20470;-80
2023/05/14 05:35:05;;;;;;;3.83;2.70;;;;;;;12.50;83.66;95373.75;5035002;28;20519;-81
2023/05/14 05:37:31;;;;;;;4.13;3.13;;;;;;;12.31;84.48;95351.69;5031591;28;20406;-82
2023/05/14 05:39:56;;;;;;;5.00;3.13;;;;;;;12.23;85.31;95345.81;5025201;28;20547;-80
2023/05/14 05:42:22;;;;;;;5.63;2.60;;;;;;;12.22;84.89;95374.03;5025661;28;20192;-82
2023/05/14 05:44:47;;;;;;;4.15;2.90;;;;;;;12.12;85.91;95386.03;5025331;28;20794;-83
2023/05/14 05:47:13;;;;;;;4.20;2.90;;;;;;;12.01;87.52;95387.50;5013777;28;20477;-84
2023/05/14 05:49:38;;;;;;;5.00;3.03;;;;;;;11.86;88.04;95387.72;4996951;28;20510;-83
2023/05/14 05:52:04;;;;;;;6.33;3.17;;;;;;;11.70;88.95;95372.28;5014127;28;20410;-82
2023/05/14 05:54:31;;;;;;;8.10;3.70;;;;;;;11.65;90.08;95367.66;5013829;28;20410;-81
2023/05/14 05:56:56;;;;;;;3.20;2.60;;;;;;;11.61;90.85;95352.41;5014655;28;20153;-81
2023/05/14 05:59:23;;;;;;;5.80;3.30;;;;;;;11.71;91.04;95366.81;5013731;28;20526;-82
2023/05/14 06:01:48;;;;;;;10.68;3.65;;;;;;;11.80;90.99;95372.72;5013406;28;20430;-82
2023/05/14 06:04:14;;;;;;;5.80;3.33;;;;;;;11.72;91.45;95367.63;5013489;28;20432;-82
2023/05/14 06:06:39;;;;;;;4.93;3.20;;;;;;;11.63;92.07;95382.84;5025357;28;20419;-83
2023/05/14 06:09:05;;;;;;;5.80;3.20;;;;;;;11.55;93.04;95382.25;5027344;28;20191;-83
2023/05/14 06:11:31;;;;;;;10.57;4.03;;;;;;;11.50;93.80;95380.22;5014205;28;20509;-84
2023/05/14 06:13:57;;;;;;;5.28;3.80;;;;;;;11.52;94.07;95387.91;4996229;28;20886;-83
2023/05/14 06:16:23;;;;;;;6.68;4.03;;;;;;;11.44;93.32;95369.66;5013107;28;20430;-80
2023/05/14 06:18:51;;;;;;;5.70;3.85;;;;;;;11.24;94.23;95325.66;5018069;28;20471;-82
2023/05/14 06:21:16;;;;;;;6.47;3.78;;;;;;;11.67;94.13;95378.81;5026609;28;20767;-81
2023/05/14 06:23:42;;;;;;;7.73;3.57;;;;;;;11.58;94.35;95366.03;5020908;28;20227;-84
2023/05/14 06:26:07;;;;;;;6.90;4.13;;;;;;;11.48;94.13;95349.81;5023936;28;20413;-83
2023/05/14 06:28:32;;;;;;;6.03;3.90;;;;;;;11.30;93.92;95326.69;5003994;28;20446;-83
2023/05/14 06:30:58;;;;;;;8.43;4.30;;;;;;;11.31;94.63;95342.31;5022317;28;20406;-83
2023/05/14 06:33:29;;;;;;;6.55;3.60;;;;;;;11.53;94.00;95387.72;5022119;28;20413;-81
2023/05/14 06:35:55;;;;;;;8.43;4.60;;;;;;;11.40;94.45;95397.47;5029453;28;20412;-81
2023/05/14 06:38:20;;;;;;;4.63;3.47;;;;;;;11.60;95.36;95393.81;5024730;28;20168;-80
2023/05/14 06:40:46;;;;;;;6.37;4.00;;;;;;;11.50;94.06;95380.22;5019679;28;21432;-80
2023/05/14 06:43:11;;;;;;;8.50;3.90;;;;;;;11.47;93.28;95393.00;5023571;28;20423;-80
2023/05/14 06:45:37;;;;;;;6.03;3.90;;;;;;;11.43;94.14;95389.13;5024211;28;20423;-80
2023/05/14 06:48:03;;;;;;;4.63;3.50;;;;;;;11.32;93.57;95370.31;5023958;28;20439;-81
2023/05/14 06:50:28;;;;;;;7.03;3.50;;;;;;;11.39;94.60;95383.47;5024538;28;20187;-82
2023/05/14 06:52:54;;;;;;;7.77;3.50;;;;;;;11.45;93.57;95371.31;5004156;28;20946;-81
2023/05/14 06:55:19;;;;;;;4.57;3.00;;;;;;;11.37;93.70;95369.69;5022401;28;20175;-81
2023/05/14 06:57:45;;;;;;;6.83;3.00;;;;;;;11.26;93.92;95346.56;5028710;28;20168;-81
2023/05/14 07:00:10;;;;;;;4.73;3.20;;;;;;;11.31;94.58;95373.94;5032952;28;20176;-81
2023/05/14 07:02:36;;;;;;;7.07;4.03;;;;;;;11.12;94.98;95342.31;5032939;28;20184;-81
2023/05/14 07:05:01;;;;;;;4.43;3.37;;;;;;;11.20;96.13;95363.19;5028688;28;20251;-81
2023/05/14 07:07:27;;;;;;;7.27;4.03;;;;;;;11.48;96.40;95369.06;5022027;28;20210;-81
2023/05/14 07:09:52;;;;;;;5.03;3.70;;;;;;;11.22;95.57;95329.53;5021284;28;20176;-81
2023/05/14 07:12:18;;;;;;;4.87;3.50;;;;;;;11.55;95.32;95363.78;5003944;28;20238;-81
2023/05/14 07:14:43;;;;;;;5.00;3.40;;;;;;;11.70;95.64;95393.41;5021717;28;20187;-81
2023/05/14 07:17:08;;;;;;;7.23;3.90;;;;;;;11.64;95.61;95383.66;5023995;28;20238;-81
2023/05/14 07:19:34;;;;;;;10.13;4.67;;;;;;;11.77;95.60;95396.84;5023917;28;20186;-81
2023/05/14 07:21:59;;;;;;;6.10;3.80;;;;;;;11.84;96.15;95402.97;5024217;28;20605;-81
2023/05/14 07:24:25;;;;;;;6.00;4.20;;;;;;;11.71;95.50;95372.09;5033049;28;20158;-82
2023/05/14 07:26:50;;;;;;;5.60;4.03;;;;;;;11.92;95.76;95399.31;5021646;28;20662;-81
2023/05/14 07:29:16;;;;;;;6.20;4.20;;;;;;;11.88;94.98;95398.06;5021649;28;20210;-81
2023/05/14 07:31:41;;;;;;;5.07;3.67;;;;;;;11.46;95.69;95325.47;5021688;28;20259;-80
2023/05/14 07:34:07;;;;;;;6.15;4.22;;;;;;;11.68;95.15;95369.84;5010072;28;20503;-79
2023/05/14 07:36:33;;;;;;;6.30;4.23;;;;;;;11.78;95.57;95395.84;5021508;28;20169;-80
2023/05/14 07:38:59;;;;;;;8.90;4.73;;;;;;;11.59;96.18;95372.91;5025053;28;20229;-80
2023/05/14 07:41:24;;;;;;;7.77;4.93;;;;;;;11.58;96.60;95376.59;5018428;28;20169;-81
2023/05/14 07:43:49;;;;;;;5.90;4.23;;;;;;;11.81;97.17;95410.47;5016629;28;20195;-80
2023/05/14 07:46:15;;;;;;;7.27;3.90;;;;;;;11.85;97.56;95398.50;5015412;28;20168;-82
2023/05/14 07:48:40;;;;;;;7.50;4.30;;;;;;;11.83;97.69;95401.34;5019256;28;20183;-83
2023/05/14 07:51:06;;;;;;;7.87;4.50;;;;;;;11.54;95.36;95375.34;5023307;28;20172;-83
2023/05/14 07:53:31;;;;;;;5.57;3.83;;;;;;;11.72;95.04;95415.91;5018655;28;20165;-83
2023/05/14 07:55:58;;;;;;;6.70;4.03;;;;;;;11.55;95.68;95398.88;5020137;28;20705;-83
2023/05/14 07:58:25;;;;;;;7.37;4.33;;;;;;;11.58;94.69;95397.69;5025637;28;20251;-84
2023/05/14 08:00:51;;;;;;;5.07;3.97;;;;;;;11.29;95.22;95377.78;5019694;28;20255;-82
2023/05/14 08:03:16;;;;;;;6.23;3.83;;;;;;;11.50;96.05;95414.47;5027442;28;20764;-83
2023/05/14 08:05:42;;;;;;;8.00;4.63;;;;;;;11.60;96.82;95422.00;5018883;28;20177;-83
2023/05/14 08:08:07;;;;;;;6.47;4.03;;;;;;;11.49;96.16;95419.97;5005277;28;20191;-81
2023/05/14 08:10:32;;;;;;;45.33;20.33;;;;;;;11.40;95.53;95408.81;5002537;28;20565;-82
2023/05/14 08:12:58;;;;;;;8.07;4.10;;;;;;;11.13;96.16;95338.66;5017974;28;20216;-84
2023/05/14 08:15:23;;;;;;;6.87;3.73;;;;;;;10.87;96.51;95340.25;4999161;28;20184;-85
2023/05/14 08:17:48;;;;;;;6.10;3.87;;;;;;;11.27;96.82;95398.25;5018812;28;20259;-81
2023/05/14 08:20:14;;;;;;;6.40;3.77;;;;;;;11.20;97.15;95387.72;5018402;28;20179;-81
2023/05/14 08:22:40;;;;;;;9.23;4.33;;;;;;;11.16;98.25;95390.94;5015167;28;20639;-83
2023/05/14 08:25:06;;;;;;;9.33;4.80;;;;;;;11.01;98.87;95362.16;5028424;28;20179;-79
2023/05/14 08:27:32;;;;;;;9.90;4.30;;;;;;;11.18;98.71;95378.38;5022287;28;20179;-82
2023/05/14 08:29:58;;;;;;;9.23;4.90;;;;;;;11.17;98.35;95374.94;5024094;28;20970;-83
2023/05/14 08:32:23;;;;;;;6.80;4.40;;;;;;;11.15;98.51;95366.44;5000529;28;20646;-89
2023/05/14 08:34:49;;;;;;;5.47;3.97;;;;;;;10.99;97.65;95337.81;5011103;28;20177;-81
2023/05/14 08:37:14;;;;;;;8.87;3.93;;;;;;;11.21;97.52;95354.28;5023091;28;20184;-88
2023/05/14 08:39:40;;;;;;;6.70;4.57;;;;;;;11.48;97.91;95377.00;5020547;28;20168;-84
2023/05/14 08:42:06;;;;;;;10.10;4.40;;;;;;;11.24;97.80;95323.03;5016687;28;20623;-83
2023/05/14 08:44:38;;;;;;;7.53;4.00;;;;;;;11.19;96.90;95330.75;4990714;28;20266;-87
2023/05/14 08:47:04;;;;;;;8.53;4.43;;;;;;;11.46;97.21;95347.38;5015963;28;20175;-84
2023/05/14 08:49:40;;;;;;;7.00;4.00;;;;;;;11.63;96.09;95368.84;5017922;28;20168;-81
2023/05/14 08:52:07;;;;;;;5.63;3.77;;;;;;;11.32;95.64;95340.50;5020818;28;20226;-82
2023/05/14 08:54:33;;;;;;;6.37;4.50;;;;;;;11.55;96.91;95369.88;4995527;28;20164;-78
2023/05/14 08:56:58;;;;;;;7.13;4.37;;;;;;;11.27;96.76;95364.00;5003775;28;20683;-82
2023/05/14 08:59:24;;;;;;;7.77;4.20;;;;;;;11.12;97.45;95350.22;5025592;28;20167;-79
2023/05/14 09:01:54;;;;;;;6.67;4.47;;;;;;;11.04;98.45;95355.69;5027217;28;20573;-81
2023/05/14 09:04:21;;;;;;;5.27;4.03;;;;;;;11.24;97.90;95369.69;5026698;28;20172;-82
2023/05/14 09:06:50;;;;;;;5.97;4.30;;;;;;;11.50;98.37;95374.94;5017235;28;20183;-81
2023/05/14 09:09:15;;;;;;;5.73;4.80;;;;;;;11.57;96.48;95369.69;5035360;28;20214;-81
2023/05/14 09:11:42;;;;;;;5.83;4.17;;;;;;;11.62;96.82;95348.78;5035154;28;20227;-81
2023/05/14 09:14:09;;;;;;;7.77;4.83;;;;;;;11.73;95.32;95343.69;5035119;28;20187;-81
2023/05/14 09:16:35;;;;;;;8.03;5.27;;;;;;;11.51;95.01;95325.66;5035421;28;20176;-82
2023/05/14 09:19:02;;;;;;;7.87;4.33;;;;;;;11.65;95.80;95354.47;5026248;28;20179;-85
2023/05/14 09:21:28;;;;;;;6.33;4.03;;;;;;;11.53;95.68;95342.09;5017736;28;20211;-81
2023/05/14 09:23:56;;;;;;;7.53;4.63;;;;;;;11.66;96.53;95366.63;5018655;28;20176;-81
2023/05/14 09:26:25;;;;;;;11.10;4.97;;;;;;;11.62;95.91;95368.03;5013512;28;20172;-81
2023/05/14 09:29:00;;;;;;;8.30;4.90;;;;;;;11.55;96.17;95340.88;5019102;28;20169;-82
2023/05/14 09:31:26;;;;;;;6.87;4.50;;;;;;;11.63;97.30;95316.13;5015459;28;20178;-81
2023/05/14 09:33:52;;;;;;;11.30;4.90;;;;;;;11.73;96.45;95342.88;5010889;28;20254;-82
2023/05/14 09:36:18;;;;;;;7.83;4.73;;;;;;;11.75;96.37;95346.16;5032187;28;20168;-81
2023/05/14 09:38:44;;;;;;;5.63;4.43;;;;;;;11.64;95.25;95344.94;5020858;28;20170;-82
2023/05/14 09:41:09;;;;;;;9.47;5.27;;;;;;;11.64;96.10;95325.66;5023526;28;20239;-81
2023/05/14 09:43:35;;;;;;;7.50;5.00;;;;;;;11.48;95.75;95307.63;5023773;28;20196;-81
2023/05/14 09:46:00;;;;;;;8.70;5.07;;;;;;;11.26;97.24;95304.38;5026716;28;20168;-81
2023/05/14 09:48:26;;;;;;;5.73;4.77;;;;;;;11.22;97.46;95313.72;5024231;28;20205;-80
2023/05/14 09:50:51;;;;;;;6.43;4.67;;;;;;;11.46;97.91;95339.47;5025671;28;20557;-81
2023/05/14 09:53:17;;;;;;;8.43;4.73;;;;;;;11.45;97.77;95329.13;5022626;28;20165;-81
2023/05/14 09:55:44;;;;;;;10.60;4.90;;;;;;;11.63;98.15;95340.66;5017205;28;20183;-83
2023/05/14 09:58:10;;;;;;;6.90;4.50;;;;;;;11.61;95.90;95337.41;5018895;28;20213;-87
2023/05/14 10:00:35;;;;;;;7.27;4.97;;;;;;;11.57;96.08;95340.69;5021500;28;20173;-87
2023/05/14 10:03:05;;;;;;;7.43;4.50;;;;;;;11.63;96.68;95330.13;5014343;28;20270;-88
2023/05/14 10:05:39;;;;;;;4.90;4.40;;;;;;;11.40;95.58;95290.19;5014695;28;20314;-84
2023/05/14 10:08:11;;;;;;;8.23;5.00;;;;;;;11.37;96.71;95287.16;5019901;28;20190;-87
2023/05/14 10:10:37;;;;;;;5.20;4.50;;;;;;;11.46;95.98;95293.84;5013176;28;20168;-84
2023/05/14 10:13:05;;;;;;;6.93;4.57;;;;;;;11.30;96.67;95260.81;5021480;28;20269;-86
2023/05/14 10:15:41;;;;;;;9.67;5.33;;;;;;;11.65;97.63;95299.09;5023636;28;20684;-84
2023/05/14 10:18:15;;;;;;;8.00;4.87;;;;;;;11.68;97.79;95272.28;5014314;28;20183;-83
2023/05/14 10:20:40;;;;;;;9.67;5.30;;;;;;;11.69;96.44;95262.53;5014819;28;20173;-84
2023/05/14 10:23:06;;;;;;;7.23;4.90;;;;;;;11.80;96.37;95269.03;5014434;28;20192;-83
2023/05/14 10:25:34;;;;;;;6.87;4.50;;;;;;;11.86;95.86;95291.94;5000175;28;20228;-85
2023/05/14 10:28:00;;;;;;;7.30;4.57;;;;;;;11.88;94.89;95300.47;5022811;28;20254;-83
2023/05/14 10:30:26;;;;;;;7.17;5.10;;;;;;;11.68;94.86;95303.13;5013749;28;20663;-87
2023/05/14 10:33:15;;;;;;;6.43;4.10;;;;;;;11.61;96.04;95282.03;5026281;28;20177;-85
2023/05/14 10:36:00;;;;;;;6.93;5.17;;;;;;;11.79;95.91;95296.44;5021615;28;20173;-84
2023/05/14 10:38:36;;;;;;;7.90;5.10;;;;;;;11.61;95.66;95271.50;5001013;28;20175;-84
2023/05/14 10:41:10;;;;;;;6.60;4.70;;;;;;;11.66;96.43;95305.16;5012460;28;20195;-83
2023/05/14 10:43:39;;;;;;;7.97;5.33;;;;;;;11.47;96.69;95267.28;4994175;28;20185;-83
2023/05/14 10:46:05;;;;;;;6.53;4.90;;;;;;;11.58;97.34;95279.84;4991462;28;20212;-84
2023/05/14 10:48:32;;;;;;;8.23;6.00;;;;;;;11.49;97.73;95277.63;5011975;28;20181;-84
2023/05/14 10:50:58;;;;;;;7.50;5.90;;;;;;;11.76;98.33;95295.03;5011288;28;20176;-84
2023/05/14 10:53:32;;;;;;;8.93;5.43;;;;;;;11.78;97.81;95305.34;4989072;28;20234;-83
2023/05/14 10:56:03;;;;;;;8.60;5.77;;;;;;;11.57;97.03;95267.66;5000912;28;20184;-83
2023/05/14 10:58:31;;;;;;;8.27;5.47;;;;;;;11.26;98.11;95226.13;4997759;28;20173;-83
2023/05/14 11:00:58;;;;;;;9.70;5.37;;;;;;;11.64;97.59;95278.19;5014552;28;20385;-83
2023/05/14 11:03:32;;;;;;;9.83;6.03;;;;;;;11.57;97.55;95259.75;5016154;28;20215;-86
2023/05/14 11:06:02;;;;;;;9.17;6.37;;;;;;;11.89;97.97;95299.44;5016592;28;20185;-85
2023/05/14 11:08:29;;;;;;;7.77;5.43;;;;;;;11.70;97.22;95272.88;4996933;28;20208;-85
2023/05/14 11:10:55;;;;;;;16.77;9.67;;;;;;;11.73;96.51;95284.88;4976142;28;20244;-85
2023/05/14 11:13:21;;;;;;;9.03;6.80;;;;;;;11.71;97.00;95271.88;5002352;28;20248;-84
2023/05/14 11:15:47;;;;;;;14.57;10.07;;;;;;;11.92;97.24;95306.97;5022678;28;20202;-84
2023/05/14 11:18:13;;;;;;;9.00;5.20;;;;;;;11.73;97.12;95261.94;5032867;28;20168;-88
2023/05/14 11:20:39;;;;;;;12.00;5.80;;;;;;;11.93;95.84;95290.13;5032788;28;20175;-84
2023/05/14 11:23:04;;;;;;;9.67;5.80;;;;;;;11.92;96.06;95283.22;5022099;28;20196;-82
2023/05/14 11:25:30;;;;;;;6.47;4.80;;;;;;;11.98;95.83;95298.22;5022745;28;20163;-81
2023/05/14 11:27:57;;;;;;;7.33;5.40;;;;;;;11.80;95.11;95248.75;4995802;28;20181;-88
2023/05/14 11:30:23;;;;;;;7.23;5.37;;;;;;;11.66;95.13;95247.16;4993465;28;20241;-86